sensor_id;sensor_type;location;lat;lon;timestamp;temperature;humidity
9403;DHT22;4741;49.834;10.740;2023-02-01T00:00:32;3.70;99.90
9403;DHT22;4741;49.834;10.740;2023-02-01T00:03:00;3.70;99.90
9403;DHT22;4741;49.834;10.740;2023-02-01T00:05:27;3.70;99.90
9403;DHT22;4741;49.834;10.740;2023-02-01T00:07:54;3.70;99.90
9403;DHT22;4741;49.834;10.740;2023-02-01T00:10:21;3.50;99.90
9403;DHT22;4741;49.834;10.740;2023-02-01T00:12:48;3.80;99.90
9403;DHT22;4741;49.834;10.740;2023-02-01T00:15:15;4.10;99.90
9403;DHT22;4741;49.834;10.740;2023-02-01T00:17:42;5.30;99.90
9403;DHT22;4741;49.834;10.740;2023-02-01T00:20:08;3.60;99.90
9403;DHT22;4741;49.834;10.740;2023-02-01T00:22:36;3.90;99.90
9403;DHT22;4741;49.834;10.740;2023-02-01T00:25:03;4.00;99.90
9403;DHT22;4741;49.834;10.740;2023-02-01T00:27:30;4.00;99.90
9403;DHT22;4741;49.834;10.740;2023-02-01T00:29:56;5.00;99.90
9403;DHT22;4741;49.834;10.740;2023-02-01T00:32:23;3.80;99.90
9403;DHT22;4741;49.834;10.740;2023-02-01T00:34:50;3.90;99.90
9403;DHT22;4741;49.834;10.740;2023-02-01T00:37:17;3.80;99.90
9403;DHT22;4741;49.834;10.740;2023-02-01T00:39:43;3.80;99.90
9403;DHT22;4741;49.834;10.740;2023-02-01T00:42:10;3.80;99.90
9403;DHT22;4741;49.834;10.740;2023-02-01T00:44:37;3.80;99.90
9403;DHT22;4741;49.834;10.740;2023-02-01T00:47:04;3.80;99.90
9403;DHT22;4741;49.834;10.740;2023-02-01T00:49:31;3.60;99.90
9403;DHT22;4741;49.834;10.740;2023-02-01T00:51:57;4.00;99.90
9403;DHT22;4741;49.834;10.740;2023-02-01T00:54:24;3.70;99.90
9403;DHT22;4741;49.834;10.740;2023-02-01T00:56:51;3.40;99.90
9403;DHT22;4741;49.834;10.740;2023-02-01T00:59:18;4.00;99.90
9403;DHT22;4741;49.834;10.740;2023-02-01T01:01:45;5.20;99.90
9403;DHT22;4741;49.834;10.740;2023-02-01T01:04:11;3.90;99.90
9403;DHT22;4741;49.834;10.740;2023-02-01T01:06:38;4.00;99.90
9403;DHT22;4741;49.834;10.740;2023-02-01T01:09:06;4.10;99.90
9403;DHT22;4741;49.834;10.740;2023-02-01T01:11:37;3.90;99.90
9403;DHT22;4741;49.834;10.740;2023-02-01T01:14:05;4.20;99.90
9403;DHT22;4741;49.834;10.740;2023-02-01T01:16:33;4.20;99.90
9403;DHT22;4741;49.834;10.740;2023-02-01T01:19:00;4.10;99.90
9403;DHT22;4741;49.834;10.740;2023-02-01T01:21:28;4.40;99.90
9403;DHT22;4741;49.834;10.740;2023-02-01T01:23:55;4.00;99.90
9403;DHT22;4741;49.834;10.740;2023-02-01T01:26:23;4.00;99.90
9403;DHT22;4741;49.834;10.740;2023-02-01T01:29:09;4.00;99.90
9403;DHT22;4741;49.834;10.740;2023-02-01T01:31:37;4.30;99.90
9403;DHT22;4741;49.834;10.740;2023-02-01T01:34:25;4.30;99.90
9403;DHT22;4741;49.834;10.740;2023-02-01T01:36:52;4.20;99.90
9403;DHT22;4741;49.834;10.740;2023-02-01T01:39:19;4.10;99.90
9403;DHT22;4741;49.834;10.740;2023-02-01T01:41:46;4.20;99.90
9403;DHT22;4741;49.834;10.740;2023-02-01T01:47:27;4.20;99.90
9403;DHT22;4741;49.834;10.740;2023-02-01T01:50:38;5.40;99.90
9403;DHT22;4741;49.834;10.740;2023-02-01T01:53:38;4.20;99.90
9403;DHT22;4741;49.834;10.740;2023-02-01T01:56:25;4.20;99.90
9403;DHT22;4741;49.834;10.740;2023-02-01T01:59:06;4.20;99.90
9403;DHT22;4741;49.834;10.740;2023-02-01T02:01:42;4.30;99.90
9403;DHT22;4741;49.834;10.740;2023-02-01T02:04:48;4.20;99.90
9403;DHT22;4741;49.834;10.740;2023-02-01T02:07:21;4.20;99.90
9403;DHT22;4741;49.834;10.740;2023-02-01T02:09:51;4.20;99.90
9403;DHT22;4741;49.834;10.740;2023-02-01T02:12:26;4.30;99.90
9403;DHT22;4741;49.834;10.740;2023-02-01T02:14:54;4.80;99.90
9403;DHT22;4741;49.834;10.740;2023-02-01T02:17:24;4.20;99.90
9403;DHT22;4741;49.834;10.740;2023-02-01T02:35:06;4.20;99.90
9403;DHT22;4741;49.834;10.740;2023-02-01T02:37:43;4.20;99.90
9403;DHT22;4741;49.834;10.740;2023-02-01T02:40:24;4.20;99.90
9403;DHT22;4741;49.834;10.740;2023-02-01T02:43:09;4.20;99.90
9403;DHT22;4741;49.834;10.740;2023-02-01T02:49:15;4.20;99.90
9403;DHT22;4741;49.834;10.740;2023-02-01T02:51:53;4.10;99.90
9403;DHT22;4741;49.834;10.740;2023-02-01T02:54:45;4.00;99.90
9403;DHT22;4741;49.834;10.740;2023-02-01T02:57:26;3.60;99.90
9403;DHT22;4741;49.834;10.740;2023-02-01T03:00:16;4.10;99.90
9403;DHT22;4741;49.834;10.740;2023-02-01T03:03:04;4.20;99.90
9403;DHT22;4741;49.834;10.740;2023-02-01T03:05:49;4.10;99.90
9403;DHT22;4741;49.834;10.740;2023-02-01T03:08:25;4.00;99.90
9403;DHT22;4741;49.834;10.740;2023-02-01T03:11:07;4.00;99.90
9403;DHT22;4741;49.834;10.740;2023-02-01T03:13:55;4.00;99.90
9403;DHT22;4741;49.834;10.740;2023-02-01T03:16:30;4.00;99.90
9403;DHT22;4741;49.834;10.740;2023-02-01T03:24:49;4.00;99.90
9403;DHT22;4741;49.834;10.740;2023-02-01T03:27:30;3.90;99.90
9403;DHT22;4741;49.834;10.740;2023-02-01T03:30:04;4.10;99.90
9403;DHT22;4741;49.834;10.740;2023-02-01T03:32:36;4.00;99.90
9403;DHT22;4741;49.834;10.740;2023-02-01T03:35:28;4.00;99.90
9403;DHT22;4741;49.834;10.740;2023-02-01T03:38:19;4.10;99.90
9403;DHT22;4741;49.834;10.740;2023-02-01T03:40:51;4.10;99.90
9403;DHT22;4741;49.834;10.740;2023-02-01T03:43:23;4.10;99.90
9403;DHT22;4741;49.834;10.740;2023-02-01T03:45:56;4.10;99.90
9403;DHT22;4741;49.834;10.740;2023-02-01T03:48:26;4.00;99.90
9403;DHT22;4741;49.834;10.740;2023-02-01T03:50:56;4.00;99.90
9403;DHT22;4741;49.834;10.740;2023-02-01T03:53:26;3.90;99.90
9403;DHT22;4741;49.834;10.740;2023-02-01T03:55:54;3.90;99.90
9403;DHT22;4741;49.834;10.740;2023-02-01T03:58:22;3.90;99.90
9403;DHT22;4741;49.834;10.740;2023-02-01T04:00:53;4.00;99.90
9403;DHT22;4741;49.834;10.740;2023-02-01T04:03:25;3.70;99.90
9403;DHT22;4741;49.834;10.740;2023-02-01T04:05:53;3.80;99.90
9403;DHT22;4741;49.834;10.740;2023-02-01T04:08:21;3.80;99.90
9403;DHT22;4741;49.834;10.740;2023-02-01T04:10:48;4.00;99.90
9403;DHT22;4741;49.834;10.740;2023-02-01T04:13:15;4.00;99.90
9403;DHT22;4741;49.834;10.740;2023-02-01T04:15:42;4.00;99.90
9403;DHT22;4741;49.834;10.740;2023-02-01T04:18:09;3.80;99.90
9403;DHT22;4741;49.834;10.740;2023-02-01T04:20:36;3.80;99.90
9403;DHT22;4741;49.834;10.740;2023-02-01T04:23:03;3.90;99.90
9403;DHT22;4741;49.834;10.740;2023-02-01T04:25:29;3.80;99.90
9403;DHT22;4741;49.834;10.740;2023-02-01T04:27:56;3.80;99.90
9403;DHT22;4741;49.834;10.740;2023-02-01T04:30:23;3.60;99.90
9403;DHT22;4741;49.834;10.740;2023-02-01T04:32:50;3.70;99.90
9403;DHT22;4741;49.834;10.740;2023-02-01T04:35:17;3.70;99.90
9403;DHT22;4741;49.834;10.740;2023-02-01T04:37:44;3.80;99.90
9403;DHT22;4741;49.834;10.740;2023-02-01T04:40:11;3.70;99.90
9403;DHT22;4741;49.834;10.740;2023-02-01T04:42:38;3.70;99.90
9403;DHT22;4741;49.834;10.740;2023-02-01T04:45:06;3.70;99.90
9403;DHT22;4741;49.834;10.740;2023-02-01T04:47:41;3.70;99.90
9403;DHT22;4741;49.834;10.740;2023-02-01T04:50:08;3.80;99.90
9403;DHT22;4741;49.834;10.740;2023-02-01T04:52:40;3.70;99.90
9403;DHT22;4741;49.834;10.740;2023-02-01T04:55:08;3.70;99.90
9403;DHT22;4741;49.834;10.740;2023-02-01T04:57:34;3.70;99.90
9403;DHT22;4741;49.834;10.740;2023-02-01T05:00:01;3.70;99.90
9403;DHT22;4741;49.834;10.740;2023-02-01T05:02:28;3.70;99.90
9403;DHT22;4741;49.834;10.740;2023-02-01T05:04:55;3.50;99.90
9403;DHT22;4741;49.834;10.740;2023-02-01T05:07:22;3.60;99.90
9403;DHT22;4741;49.834;10.740;2023-02-01T05:09:49;3.50;99.90
9403;DHT22;4741;49.834;10.740;2023-02-01T05:12:16;3.60;99.90
9403;DHT22;4741;49.834;10.740;2023-02-01T05:15:12;3.50;99.90
9403;DHT22;4741;49.834;10.740;2023-02-01T05:17:38;3.80;99.90
9403;DHT22;4741;49.834;10.740;2023-02-01T05:20:07;3.60;99.90
9403;DHT22;4741;49.834;10.740;2023-02-01T05:22:35;3.90;99.90
9403;DHT22;4741;49.834;10.740;2023-02-01T05:25:01;3.90;99.90
9403;DHT22;4741;49.834;10.740;2023-02-01T05:27:29;5.00;99.90
9403;DHT22;4741;49.834;10.740;2023-02-01T05:29:56;3.90;99.90
9403;DHT22;4741;49.834;10.740;2023-02-01T05:32:23;3.50;99.90
9403;DHT22;4741;49.834;10.740;2023-02-01T05:34:50;3.70;99.90
9403;DHT22;4741;49.834;10.740;2023-02-01T05:37:17;3.80;99.90
9403;DHT22;4741;49.834;10.740;2023-02-01T05:39:43;3.60;99.90
9403;DHT22;4741;49.834;10.740;2023-02-01T05:42:10;3.60;99.90
9403;DHT22;4741;49.834;10.740;2023-02-01T05:44:37;3.60;99.90
9403;DHT22;4741;49.834;10.740;2023-02-01T05:47:04;3.60;99.90
9403;DHT22;4741;49.834;10.740;2023-02-01T05:49:30;3.40;99.90
9403;DHT22;4741;49.834;10.740;2023-02-01T05:51:57;3.50;99.90
9403;DHT22;4741;49.834;10.740;2023-02-01T05:54:26;3.50;99.90
9403;DHT22;4741;49.834;10.740;2023-02-01T05:56:52;3.60;99.90
9403;DHT22;4741;49.834;10.740;2023-02-01T05:59:19;3.50;99.90
9403;DHT22;4741;49.834;10.740;2023-02-01T06:01:46;3.50;99.90
9403;DHT22;4741;49.834;10.740;2023-02-01T06:04:13;4.30;99.90
9403;DHT22;4741;49.834;10.740;2023-02-01T06:06:40;3.20;99.90
9403;DHT22;4741;49.834;10.740;2023-02-01T06:09:06;3.00;99.90
9403;DHT22;4741;49.834;10.740;2023-02-01T06:11:33;3.40;99.90
9403;DHT22;4741;49.834;10.740;2023-02-01T06:14:00;3.40;99.90
9403;DHT22;4741;49.834;10.740;2023-02-01T06:16:27;3.60;99.90
9403;DHT22;4741;49.834;10.740;2023-02-01T06:18:54;3.40;99.90
9403;DHT22;4741;49.834;10.740;2023-02-01T06:21:20;3.50;99.90
9403;DHT22;4741;49.834;10.740;2023-02-01T06:23:51;3.50;99.90
9403;DHT22;4741;49.834;10.740;2023-02-01T06:26:19;3.60;99.90
9403;DHT22;4741;49.834;10.740;2023-02-01T06:28:46;3.90;99.90
9403;DHT22;4741;49.834;10.740;2023-02-01T06:31:13;3.80;99.90
9403;DHT22;4741;49.834;10.740;2023-02-01T06:33:40;3.80;99.90
9403;DHT22;4741;49.834;10.740;2023-02-01T06:36:09;3.80;99.90
9403;DHT22;4741;49.834;10.740;2023-02-01T06:38:37;3.40;99.90
9403;DHT22;4741;49.834;10.740;2023-02-01T06:41:05;3.50;99.90
9403;DHT22;4741;49.834;10.740;2023-02-01T06:43:32;3.50;99.90
9403;DHT22;4741;49.834;10.740;2023-02-01T06:46:04;3.50;99.90
9403;DHT22;4741;49.834;10.740;2023-02-01T06:48:32;3.80;99.90
9403;DHT22;4741;49.834;10.740;2023-02-01T06:50:59;3.60;99.90
9403;DHT22;4741;49.834;10.740;2023-02-01T06:53:26;3.80;99.90
9403;DHT22;4741;49.834;10.740;2023-02-01T06:55:56;3.60;99.90
9403;DHT22;4741;49.834;10.740;2023-02-01T06:58:23;3.60;99.90
9403;DHT22;4741;49.834;10.740;2023-02-01T07:00:50;3.80;99.90
9403;DHT22;4741;49.834;10.740;2023-02-01T07:03:17;3.60;99.90
9403;DHT22;4741;49.834;10.740;2023-02-01T07:05:44;3.70;99.90
9403;DHT22;4741;49.834;10.740;2023-02-01T07:08:10;3.40;99.90
9403;DHT22;4741;49.834;10.740;2023-02-01T07:10:37;3.60;99.90
9403;DHT22;4741;49.834;10.740;2023-02-01T07:13:04;3.80;99.90
9403;DHT22;4741;49.834;10.740;2023-02-01T07:15:31;3.80;99.90
9403;DHT22;4741;49.834;10.740;2023-02-01T07:17:58;3.80;99.90
9403;DHT22;4741;49.834;10.740;2023-02-01T07:20:25;3.60;99.90
9403;DHT22;4741;49.834;10.740;2023-02-01T07:22:55;3.80;99.90
9403;DHT22;4741;49.834;10.740;2023-02-01T07:25:23;3.90;99.90
9403;DHT22;4741;49.834;10.740;2023-02-01T07:27:50;3.90;99.90
9403;DHT22;4741;49.834;10.740;2023-02-01T07:30:17;3.80;99.90
9403;DHT22;4741;49.834;10.740;2023-02-01T07:32:44;3.90;99.90
9403;DHT22;4741;49.834;10.740;2023-02-01T07:35:11;3.70;99.90
9403;DHT22;4741;49.834;10.740;2023-02-01T07:37:38;3.90;99.90
9403;DHT22;4741;49.834;10.740;2023-02-01T07:40:05;3.60;99.90
9403;DHT22;4741;49.834;10.740;2023-02-01T07:42:33;4.00;99.90
9403;DHT22;4741;49.834;10.740;2023-02-01T07:45:00;4.00;99.90
9403;DHT22;4741;49.834;10.740;2023-02-01T07:47:46;3.90;99.90
9403;DHT22;4741;49.834;10.740;2023-02-01T07:50:13;4.00;99.90
9403;DHT22;4741;49.834;10.740;2023-02-01T07:52:40;3.80;99.90
9403;DHT22;4741;49.834;10.740;2023-02-01T07:55:07;4.00;99.90
9403;DHT22;4741;49.834;10.740;2023-02-01T07:57:34;4.30;99.90
9403;DHT22;4741;49.834;10.740;2023-02-01T08:00:01;4.40;99.90
9403;DHT22;4741;49.834;10.740;2023-02-01T08:02:48;4.50;99.90
9403;DHT22;4741;49.834;10.740;2023-02-01T08:05:15;4.30;99.90
9403;DHT22;4741;49.834;10.740;2023-02-01T08:07:42;4.40;99.90
9403;DHT22;4741;49.834;10.740;2023-02-01T08:10:09;4.10;99.90
9403;DHT22;4741;49.834;10.740;2023-02-01T08:12:37;4.70;99.90
9403;DHT22;4741;49.834;10.740;2023-02-01T08:15:04;4.70;99.90
9403;DHT22;4741;49.834;10.740;2023-02-01T08:17:32;4.90;99.90
9403;DHT22;4741;49.834;10.740;2023-02-01T08:22:26;5.10;99.90
9403;DHT22;4741;49.834;10.740;2023-02-01T08:24:57;4.80;99.90
9403;DHT22;4741;49.834;10.740;2023-02-01T08:27:27;5.20;99.90
9403;DHT22;4741;49.834;10.740;2023-02-01T08:29:54;5.20;99.90
9403;DHT22;4741;49.834;10.740;2023-02-01T08:32:21;5.20;99.90
9403;DHT22;4741;49.834;10.740;2023-02-01T08:34:48;5.20;99.90
9403;DHT22;4741;49.834;10.740;2023-02-01T08:37:15;5.20;99.90
9403;DHT22;4741;49.834;10.740;2023-02-01T08:39:41;5.10;99.90
9403;DHT22;4741;49.834;10.740;2023-02-01T08:42:13;4.70;99.90
9403;DHT22;4741;49.834;10.740;2023-02-01T08:44:58;5.10;99.90
9403;DHT22;4741;49.834;10.740;2023-02-01T08:47:25;5.00;99.90
9403;DHT22;4741;49.834;10.740;2023-02-01T08:49:52;5.10;99.90
9403;DHT22;4741;49.834;10.740;2023-02-01T08:52:19;4.80;99.90
9403;DHT22;4741;49.834;10.740;2023-02-01T08:54:46;4.80;99.90
9403;DHT22;4741;49.834;10.740;2023-02-01T08:57:13;5.50;99.90
9403;DHT22;4741;49.834;10.740;2023-02-01T08:59:40;5.60;99.90
9403;DHT22;4741;49.834;10.740;2023-02-01T09:02:08;5.70;99.90
9403;DHT22;4741;49.834;10.740;2023-02-01T09:04:39;5.60;99.90
9403;DHT22;4741;49.834;10.740;2023-02-01T09:07:06;5.40;99.90
9403;DHT22;4741;49.834;10.740;2023-02-01T09:09:33;5.40;99.90
9403;DHT22;4741;49.834;10.740;2023-02-01T09:12:00;5.40;99.90
9403;DHT22;4741;49.834;10.740;2023-02-01T09:14:28;6.00;99.90
9403;DHT22;4741;49.834;10.740;2023-02-01T09:16:54;5.70;99.90
9403;DHT22;4741;49.834;10.740;2023-02-01T09:21:52;6.20;99.90
9403;DHT22;4741;49.834;10.740;2023-02-01T09:24:18;6.00;99.90
9403;DHT22;4741;49.834;10.740;2023-02-01T09:26:45;6.10;99.90
9403;DHT22;4741;49.834;10.740;2023-02-01T09:29:12;5.70;99.90
9403;DHT22;4741;49.834;10.740;2023-02-01T09:31:39;5.40;99.90
9403;DHT22;4741;49.834;10.740;2023-02-01T09:34:15;5.60;99.90
9403;DHT22;4741;49.834;10.740;2023-02-01T09:36:42;5.80;99.90
9403;DHT22;4741;49.834;10.740;2023-02-01T09:39:08;5.80;99.90
9403;DHT22;4741;49.834;10.740;2023-02-01T09:44:29;6.20;99.90
9403;DHT22;4741;49.834;10.740;2023-02-01T09:47:14;6.60;99.90
9403;DHT22;4741;49.834;10.740;2023-02-01T09:52:38;6.30;99.90
9403;DHT22;4741;49.834;10.740;2023-02-01T09:55:16;6.00;99.90
9403;DHT22;4741;49.834;10.740;2023-02-01T09:57:58;6.80;99.90
9403;DHT22;4741;49.834;10.740;2023-02-01T10:00:37;5.80;99.90
9403;DHT22;4741;49.834;10.740;2023-02-01T10:03:05;6.30;99.90
9403;DHT22;4741;49.834;10.740;2023-02-01T10:05:57;5.40;99.90
9403;DHT22;4741;49.834;10.740;2023-02-01T10:14:35;5.60;99.90
9403;DHT22;4741;49.834;10.740;2023-02-01T10:20:36;5.60;99.90
9403;DHT22;4741;49.834;10.740;2023-02-01T10:28:41;5.50;99.90
9403;DHT22;4741;49.834;10.740;2023-02-01T10:31:22;5.40;99.90
9403;DHT22;4741;49.834;10.740;2023-02-01T10:34:00;5.40;99.90
9403;DHT22;4741;49.834;10.740;2023-02-01T10:36:45;5.50;99.90
9403;DHT22;4741;49.834;10.740;2023-02-01T10:39:26;5.50;99.90
9403;DHT22;4741;49.834;10.740;2023-02-01T10:42:07;5.40;99.90
9403;DHT22;4741;49.834;10.740;2023-02-01T10:44:40;5.40;99.90
9403;DHT22;4741;49.834;10.740;2023-02-01T10:47:10;5.40;99.90
9403;DHT22;4741;49.834;10.740;2023-02-01T10:55:25;5.30;99.90
9403;DHT22;4741;49.834;10.740;2023-02-01T10:58:00;5.10;99.90
9403;DHT22;4741;49.834;10.740;2023-02-01T11:00:44;5.20;99.90
9403;DHT22;4741;49.834;10.740;2023-02-01T11:03:21;5.20;99.90
9403;DHT22;4741;49.834;10.740;2023-02-01T11:05:59;5.20;99.90
9403;DHT22;4741;49.834;10.740;2023-02-01T11:08:28;4.80;99.90
9403;DHT22;4741;49.834;10.740;2023-02-01T11:10:59;5.00;99.90
9403;DHT22;4741;49.834;10.740;2023-02-01T11:13:29;5.30;99.90
9403;DHT22;4741;49.834;10.740;2023-02-01T11:15:58;5.00;99.90
9403;DHT22;4741;49.834;10.740;2023-02-01T11:18:30;5.30;99.90
9403;DHT22;4741;49.834;10.740;2023-02-01T11:21:01;6.60;99.90
9403;DHT22;4741;49.834;10.740;2023-02-01T11:23:29;5.10;99.90
9403;DHT22;4741;49.834;10.740;2023-02-01T11:26:00;5.00;99.90
9403;DHT22;4741;49.834;10.740;2023-02-01T11:28:35;5.30;99.90
9403;DHT22;4741;49.834;10.740;2023-02-01T11:31:10;5.10;99.90
9403;DHT22;4741;49.834;10.740;2023-02-01T11:33:42;5.40;99.90
9403;DHT22;4741;49.834;10.740;2023-02-01T11:36:17;5.00;99.90
9403;DHT22;4741;49.834;10.740;2023-02-01T11:38:51;5.10;99.90
9403;DHT22;4741;49.834;10.740;2023-02-01T11:41:21;5.20;99.90
9403;DHT22;4741;49.834;10.740;2023-02-01T11:43:57;5.20;99.90
9403;DHT22;4741;49.834;10.740;2023-02-01T11:46:30;5.50;99.90
9403;DHT22;4741;49.834;10.740;2023-02-01T11:51:52;5.60;99.90
9403;DHT22;4741;49.834;10.740;2023-02-01T11:54:51;5.40;99.90
9403;DHT22;4741;49.834;10.740;2023-02-01T12:00:38;5.60;99.90
9403;DHT22;4741;49.834;10.740;2023-02-01T12:06:13;5.60;99.90
9403;DHT22;4741;49.834;10.740;2023-02-01T12:09:32;5.60;99.90
9403;DHT22;4741;49.834;10.740;2023-02-01T12:20:46;5.60;99.90
9403;DHT22;4741;49.834;10.740;2023-02-01T12:26:46;5.70;99.90
9403;DHT22;4741;49.834;10.740;2023-02-01T12:43:11;5.70;99.90
9403;DHT22;4741;49.834;10.740;2023-02-01T12:45:49;5.60;99.90
9403;DHT22;4741;49.834;10.740;2023-02-01T12:51:14;5.80;99.90
9403;DHT22;4741;49.834;10.740;2023-02-01T12:53:50;5.90;99.90
9403;DHT22;4741;49.834;10.740;2023-02-01T12:56:25;5.90;99.90
9403;DHT22;4741;49.834;10.740;2023-02-01T12:58:58;5.90;99.90
9403;DHT22;4741;49.834;10.740;2023-02-01T13:04:12;5.80;99.90
9403;DHT22;4741;49.834;10.740;2023-02-01T13:06:45;5.80;99.90
9403;DHT22;4741;49.834;10.740;2023-02-01T13:09:21;5.70;99.90
9403;DHT22;4741;49.834;10.740;2023-02-01T13:11:53;5.80;99.90
9403;DHT22;4741;49.834;10.740;2023-02-01T13:17:18;5.90;99.90
9403;DHT22;4741;49.834;10.740;2023-02-01T13:25:02;5.90;99.90
9403;DHT22;4741;49.834;10.740;2023-02-01T13:27:34;6.90;99.90
9403;DHT22;4741;49.834;10.740;2023-02-01T13:30:18;6.00;99.90
9403;DHT22;4741;49.834;10.740;2023-02-01T13:33:03;5.80;99.90
9403;DHT22;4741;49.834;10.740;2023-02-01T13:39:02;5.80;99.90
9403;DHT22;4741;49.834;10.740;2023-02-01T13:41:56;5.40;99.90
9403;DHT22;4741;49.834;10.740;2023-02-01T13:44:34;5.70;99.90
9403;DHT22;4741;49.834;10.740;2023-02-01T13:47:19;5.80;99.90
9403;DHT22;4741;49.834;10.740;2023-02-01T13:50:29;5.80;99.90
9403;DHT22;4741;49.834;10.740;2023-02-01T13:53:32;5.80;99.90
9403;DHT22;4741;49.834;10.740;2023-02-01T13:56:38;5.70;99.90
9403;DHT22;4741;49.834;10.740;2023-02-01T13:59:54;5.60;99.90
9403;DHT22;4741;49.834;10.740;2023-02-01T14:05:07;5.80;99.90
9403;DHT22;4741;49.834;10.740;2023-02-01T14:07:40;5.80;99.90
9403;DHT22;4741;49.834;10.740;2023-02-01T14:10:55;5.10;99.90
9403;DHT22;4741;49.834;10.740;2023-02-01T14:13:40;5.80;99.90
9403;DHT22;4741;49.834;10.740;2023-02-01T14:16:16;5.70;99.90
9403;DHT22;4741;49.834;10.740;2023-02-01T14:21:20;5.50;99.90
9403;DHT22;4741;49.834;10.740;2023-02-01T14:23:57;5.70;99.90
9403;DHT22;4741;49.834;10.740;2023-02-01T14:32:01;5.60;99.90
9403;DHT22;4741;49.834;10.740;2023-02-01T14:35:07;5.10;99.90
9403;DHT22;4741;49.834;10.740;2023-02-01T14:37:33;5.60;99.90
9403;DHT22;4741;49.834;10.740;2023-02-01T14:40:16;5.30;99.90
9403;DHT22;4741;49.834;10.740;2023-02-01T14:42:47;5.70;99.90
9403;DHT22;4741;49.834;10.740;2023-02-01T14:52:43;7.00;99.90
9403;DHT22;4741;49.834;10.740;2023-02-01T14:58:18;5.60;99.90
9403;DHT22;4741;49.834;10.740;2023-02-01T15:00:47;5.60;99.90
9403;DHT22;4741;49.834;10.740;2023-02-01T15:03:39;5.50;99.90
9403;DHT22;4741;49.834;10.740;2023-02-01T15:06:57;5.60;99.90
9403;DHT22;4741;49.834;10.740;2023-02-01T15:09:47;5.70;99.90
9403;DHT22;4741;49.834;10.740;2023-02-01T15:14:39;5.70;99.90
9403;DHT22;4741;49.834;10.740;2023-02-01T15:17:22;5.60;99.90
9403;DHT22;4741;49.834;10.740;2023-02-01T15:19:59;5.60;99.90
9403;DHT22;4741;49.834;10.740;2023-02-01T15:22:30;5.60;99.90
9403;DHT22;4741;49.834;10.740;2023-02-01T15:24:58;5.40;99.90
9403;DHT22;4741;49.834;10.740;2023-02-01T15:27:27;5.40;99.90
9403;DHT22;4741;49.834;10.740;2023-02-01T15:30:04;5.30;99.90
9403;DHT22;4741;49.834;10.740;2023-02-01T15:32:36;5.50;99.90
9403;DHT22;4741;49.834;10.740;2023-02-01T15:35:30;5.60;99.90
9403;DHT22;4741;49.834;10.740;2023-02-01T15:40:59;5.50;99.90
9403;DHT22;4741;49.834;10.740;2023-02-01T15:43:31;5.40;99.90
9403;DHT22;4741;49.834;10.740;2023-02-01T15:46:02;5.40;99.90
9403;DHT22;4741;49.834;10.740;2023-02-01T15:48:40;5.20;99.90
9403;DHT22;4741;49.834;10.740;2023-02-01T15:51:18;5.40;99.90
9403;DHT22;4741;49.834;10.740;2023-02-01T15:53:51;5.40;99.90
9403;DHT22;4741;49.834;10.740;2023-02-01T15:56:33;5.40;99.90
9403;DHT22;4741;49.834;10.740;2023-02-01T15:59:02;5.40;99.90
9403;DHT22;4741;49.834;10.740;2023-02-01T16:01:36;5.30;99.90
9403;DHT22;4741;49.834;10.740;2023-02-01T16:04:26;5.20;99.90
9403;DHT22;4741;49.834;10.740;2023-02-01T16:10:17;5.30;99.90
9403;DHT22;4741;49.834;10.740;2023-02-01T16:12:51;5.30;99.90
9403;DHT22;4741;49.834;10.740;2023-02-01T16:15:24;5.70;99.90
9403;DHT22;4741;49.834;10.740;2023-02-01T16:17:52;5.30;99.90
9403;DHT22;4741;49.834;10.740;2023-02-01T16:20:32;6.30;99.90
9403;DHT22;4741;49.834;10.740;2023-02-01T16:23:02;5.20;99.90
9403;DHT22;4741;49.834;10.740;2023-02-01T16:25:29;5.30;99.90
9403;DHT22;4741;49.834;10.740;2023-02-01T16:27:57;6.20;99.90
9403;DHT22;4741;49.834;10.740;2023-02-01T16:30:24;5.20;99.90
9403;DHT22;4741;49.834;10.740;2023-02-01T16:32:52;5.30;99.90
9403;DHT22;4741;49.834;10.740;2023-02-01T16:35:46;5.20;99.90
9403;DHT22;4741;49.834;10.740;2023-02-01T16:38:12;5.20;99.90
9403;DHT22;4741;49.834;10.740;2023-02-01T16:40:40;5.30;99.90
9403;DHT22;4741;49.834;10.740;2023-02-01T16:43:17;5.30;99.90
9403;DHT22;4741;49.834;10.740;2023-02-01T16:45:46;5.30;99.90
9403;DHT22;4741;49.834;10.740;2023-02-01T16:48:22;5.30;99.90
9403;DHT22;4741;49.834;10.740;2023-02-01T16:51:03;5.20;99.90
9403;DHT22;4741;49.834;10.740;2023-02-01T16:53:35;5.10;99.90
9403;DHT22;4741;49.834;10.740;2023-02-01T16:56:20;5.10;99.90
9403;DHT22;4741;49.834;10.740;2023-02-01T16:58:49;5.10;99.90
9403;DHT22;4741;49.834;10.740;2023-02-01T17:01:19;4.80;99.90
9403;DHT22;4741;49.834;10.740;2023-02-01T17:03:46;6.00;99.90
9403;DHT22;4741;49.834;10.740;2023-02-01T17:06:20;5.00;99.90
9403;DHT22;4741;49.834;10.740;2023-02-01T17:08:56;5.00;99.90
9403;DHT22;4741;49.834;10.740;2023-02-01T17:11:29;5.10;99.90
9403;DHT22;4741;49.834;10.740;2023-02-01T17:14:00;5.00;99.90
9403;DHT22;4741;49.834;10.740;2023-02-01T17:16:58;4.70;99.90
9403;DHT22;4741;49.834;10.740;2023-02-01T17:19:27;4.90;99.90
9403;DHT22;4741;49.834;10.740;2023-02-01T17:21:55;4.90;99.90
9403;DHT22;4741;49.834;10.740;2023-02-01T17:24:25;4.50;99.90
9403;DHT22;4741;49.834;10.740;2023-02-01T17:27:12;4.80;99.90
9403;DHT22;4741;49.834;10.740;2023-02-01T17:29:39;4.60;99.90
9403;DHT22;4741;49.834;10.740;2023-02-01T17:32:06;4.70;99.90
9403;DHT22;4741;49.834;10.740;2023-02-01T17:34:41;4.30;99.90
9403;DHT22;4741;49.834;10.740;2023-02-01T17:37:22;4.50;99.90
9403;DHT22;4741;49.834;10.740;2023-02-01T17:39:52;4.50;99.90
9403;DHT22;4741;49.834;10.740;2023-02-01T17:42:23;4.40;99.90
9403;DHT22;4741;49.834;10.740;2023-02-01T17:45:00;4.20;99.90
9403;DHT22;4741;49.834;10.740;2023-02-01T17:47:38;4.10;99.90
9403;DHT22;4741;49.834;10.740;2023-02-01T17:50:05;4.40;99.90
9403;DHT22;4741;49.834;10.740;2023-02-01T17:52:32;4.40;99.90
9403;DHT22;4741;49.834;10.740;2023-02-01T17:54:58;4.40;99.90
9403;DHT22;4741;49.834;10.740;2023-02-01T17:57:25;4.30;99.90
9403;DHT22;4741;49.834;10.740;2023-02-01T17:59:52;4.60;99.90
9403;DHT22;4741;49.834;10.740;2023-02-01T18:02:20;4.70;99.90
9403;DHT22;4741;49.834;10.740;2023-02-01T18:04:49;4.60;99.90
9403;DHT22;4741;49.834;10.740;2023-02-01T18:07:16;4.40;99.90
9403;DHT22;4741;49.834;10.740;2023-02-01T18:09:43;4.60;99.90
9403;DHT22;4741;49.834;10.740;2023-02-01T18:12:28;4.70;99.90
9403;DHT22;4741;49.834;10.740;2023-02-01T18:14:58;4.70;99.90
9403;DHT22;4741;49.834;10.740;2023-02-01T18:17:25;4.70;99.90
9403;DHT22;4741;49.834;10.740;2023-02-01T18:19:52;4.70;99.90
9403;DHT22;4741;49.834;10.740;2023-02-01T18:22:20;4.80;99.90
9403;DHT22;4741;49.834;10.740;2023-02-01T18:24:49;4.80;99.90
9403;DHT22;4741;49.834;10.740;2023-02-01T18:27:16;4.90;99.90
9403;DHT22;4741;49.834;10.740;2023-02-01T18:29:42;4.70;99.90
9403;DHT22;4741;49.834;10.740;2023-02-01T18:32:09;4.80;99.90
9403;DHT22;4741;49.834;10.740;2023-02-01T18:34:36;5.00;99.90
9403;DHT22;4741;49.834;10.740;2023-02-01T18:37:03;4.80;99.90
9403;DHT22;4741;49.834;10.740;2023-02-01T18:39:30;4.80;99.90
9403;DHT22;4741;49.834;10.740;2023-02-01T18:41:57;4.50;99.90
9403;DHT22;4741;49.834;10.740;2023-02-01T18:44:24;4.80;99.90
9403;DHT22;4741;49.834;10.740;2023-02-01T18:46:51;5.00;99.90
9403;DHT22;4741;49.834;10.740;2023-02-01T18:49:18;4.80;99.90
9403;DHT22;4741;49.834;10.740;2023-02-01T18:51:45;4.80;99.90
9403;DHT22;4741;49.834;10.740;2023-02-01T18:54:12;4.90;99.90
9403;DHT22;4741;49.834;10.740;2023-02-01T18:56:39;4.90;99.90